sensor_id;sensor_type;location;lat;lon;timestamp;temperature;humidity
21255;DHT22;10785;50.674;17.954;2022-11-27T00:01:55;4.80;1.00
21255;DHT22;10785;50.674;17.954;2022-11-27T00:04:25;4.80;1.00
21255;DHT22;10785;50.674;17.954;2022-11-27T00:06:53;4.80;1.00
21255;DHT22;10785;50.674;17.954;2022-11-27T00:09:22;4.80;1.00
21255;DHT22;10785;50.674;17.954;2022-11-27T00:11:51;4.80;1.00
21255;DHT22;10785;50.674;17.954;2022-11-27T00:14:19;4.80;1.00
21255;DHT22;10785;50.674;17.954;2022-11-27T00:16:48;4.90;1.00
21255;DHT22;10785;50.674;17.954;2022-11-27T00:19:16;4.90;1.00
21255;DHT22;10785;50.674;17.954;2022-11-27T00:21:46;4.90;1.00
21255;DHT22;10785;50.674;17.954;2022-11-27T00:24:15;4.90;1.00
21255;DHT22;10785;50.674;17.954;2022-11-27T00:26:44;4.90;1.00
21255;DHT22;10785;50.674;17.954;2022-11-27T00:29:12;4.90;1.00
21255;DHT22;10785;50.674;17.954;2022-11-27T00:31:41;4.90;1.00
21255;DHT22;10785;50.674;17.954;2022-11-27T00:34:10;4.90;1.00
21255;DHT22;10785;50.674;17.954;2022-11-27T00:36:39;4.90;1.00
21255;DHT22;10785;50.674;17.954;2022-11-27T00:39:15;4.90;1.00
21255;DHT22;10785;50.674;17.954;2022-11-27T00:41:44;5.00;1.00
21255;DHT22;10785;50.674;17.954;2022-11-27T00:44:13;5.00;1.00
21255;DHT22;10785;50.674;17.954;2022-11-27T00:46:41;4.90;1.00
21255;DHT22;10785;50.674;17.954;2022-11-27T00:49:13;5.10;1.00
21255;DHT22;10785;50.674;17.954;2022-11-27T00:51:42;5.00;1.00
21255;DHT22;10785;50.674;17.954;2022-11-27T00:54:10;5.00;1.00
21255;DHT22;10785;50.674;17.954;2022-11-27T00:56:40;5.00;1.00
21255;DHT22;10785;50.674;17.954;2022-11-27T00:59:10;4.90;1.00
21255;DHT22;10785;50.674;17.954;2022-11-27T01:01:40;5.00;1.00
21255;DHT22;10785;50.674;17.954;2022-11-27T01:04:13;5.00;1.00
21255;DHT22;10785;50.674;17.954;2022-11-27T01:06:43;5.00;1.00
21255;DHT22;10785;50.674;17.954;2022-11-27T01:09:12;5.00;1.00
21255;DHT22;10785;50.674;17.954;2022-11-27T01:11:42;5.00;1.00
21255;DHT22;10785;50.674;17.954;2022-11-27T01:14:12;5.00;1.00
21255;DHT22;10785;50.674;17.954;2022-11-27T01:16:41;5.00;1.00
21255;DHT22;10785;50.674;17.954;2022-11-27T01:19:11;5.10;1.00
21255;DHT22;10785;50.674;17.954;2022-11-27T01:21:40;5.00;1.00
21255;DHT22;10785;50.674;17.954;2022-11-27T01:24:09;5.00;1.00
21255;DHT22;10785;50.674;17.954;2022-11-27T01:26:39;5.00;1.00
21255;DHT22;10785;50.674;17.954;2022-11-27T01:29:11;5.00;1.00
21255;DHT22;10785;50.674;17.954;2022-11-27T01:31:39;5.00;1.00
21255;DHT22;10785;50.674;17.954;2022-11-27T01:34:14;5.00;1.00
21255;DHT22;10785;50.674;17.954;2022-11-27T01:36:43;5.00;1.00
21255;DHT22;10785;50.674;17.954;2022-11-27T01:39:14;4.90;1.00
21255;DHT22;10785;50.674;17.954;2022-11-27T01:41:43;4.90;1.00
21255;DHT22;10785;50.674;17.954;2022-11-27T01:47:29;4.90;1.00
21255;DHT22;10785;50.674;17.954;2022-11-27T01:50:08;4.90;1.00
21255;DHT22;10785;50.674;17.954;2022-11-27T01:52:41;4.90;1.00
21255;DHT22;10785;50.674;17.954;2022-11-27T01:55:13;4.90;1.00
21255;DHT22;10785;50.674;17.954;2022-11-27T01:57:48;4.90;1.00
21255;DHT22;10785;50.674;17.954;2022-11-27T02:00:18;4.90;1.00
21255;DHT22;10785;50.674;17.954;2022-11-27T02:02:48;4.90;1.00
21255;DHT22;10785;50.674;17.954;2022-11-27T02:05:19;4.80;1.00
21255;DHT22;10785;50.674;17.954;2022-11-27T02:07:49;4.90;1.00
21255;DHT22;10785;50.674;17.954;2022-11-27T02:10:18;4.80;1.00
21255;DHT22;10785;50.674;17.954;2022-11-27T02:12:54;4.80;1.00
21255;DHT22;10785;50.674;17.954;2022-11-27T02:15:29;4.80;1.00
21255;DHT22;10785;50.674;17.954;2022-11-27T02:18:08;4.80;1.00
21255;DHT22;10785;50.674;17.954;2022-11-27T02:20:44;4.80;1.00
21255;DHT22;10785;50.674;17.954;2022-11-27T02:23:40;4.80;1.00
21255;DHT22;10785;50.674;17.954;2022-11-27T02:26:24;4.80;1.00
21255;DHT22;10785;50.674;17.954;2022-11-27T02:29:04;4.80;1.00
21255;DHT22;10785;50.674;17.954;2022-11-27T02:31:39;4.80;1.00
21255;DHT22;10785;50.674;17.954;2022-11-27T02:34:16;4.80;1.00
21255;DHT22;10785;50.674;17.954;2022-11-27T02:36:49;4.80;1.00
21255;DHT22;10785;50.674;17.954;2022-11-27T02:39:24;4.80;1.00
21255;DHT22;10785;50.674;17.954;2022-11-27T02:41:58;4.90;1.00
21255;DHT22;10785;50.674;17.954;2022-11-27T02:44:32;4.80;1.00
21255;DHT22;10785;50.674;17.954;2022-11-27T02:47:03;4.80;1.00
21255;DHT22;10785;50.674;17.954;2022-11-27T02:49:33;4.80;1.00
21255;DHT22;10785;50.674;17.954;2022-11-27T02:52:04;4.80;1.00
21255;DHT22;10785;50.674;17.954;2022-11-27T02:54:34;4.80;1.00
21255;DHT22;10785;50.674;17.954;2022-11-27T02:57:03;4.80;1.00
21255;DHT22;10785;50.674;17.954;2022-11-27T02:59:35;4.80;1.00
21255;DHT22;10785;50.674;17.954;2022-11-27T03:02:08;4.80;1.00
21255;DHT22;10785;50.674;17.954;2022-11-27T03:04:42;4.80;1.00
21255;DHT22;10785;50.674;17.954;2022-11-27T03:07:15;4.80;1.00
21255;DHT22;10785;50.674;17.954;2022-11-27T03:09:48;4.80;1.00
21255;DHT22;10785;50.674;17.954;2022-11-27T03:12:17;4.80;1.00
21255;DHT22;10785;50.674;17.954;2022-11-27T03:14:48;4.80;1.00
21255;DHT22;10785;50.674;17.954;2022-11-27T03:17:27;4.80;1.00
21255;DHT22;10785;50.674;17.954;2022-11-27T03:20:01;4.80;1.00
21255;DHT22;10785;50.674;17.954;2022-11-27T03:22:33;4.70;1.00
21255;DHT22;10785;50.674;17.954;2022-11-27T03:25:01;4.70;1.00
21255;DHT22;10785;50.674;17.954;2022-11-27T03:27:33;4.70;1.00
21255;DHT22;10785;50.674;17.954;2022-11-27T03:30:07;4.80;1.00
21255;DHT22;10785;50.674;17.954;2022-11-27T03:32:36;4.80;1.00
21255;DHT22;10785;50.674;17.954;2022-11-27T03:35:07;4.80;1.00
21255;DHT22;10785;50.674;17.954;2022-11-27T03:37:37;4.70;1.00
21255;DHT22;10785;50.674;17.954;2022-11-27T03:40:07;4.70;1.00
21255;DHT22;10785;50.674;17.954;2022-11-27T03:42:46;4.70;1.00
21255;DHT22;10785;50.674;17.954;2022-11-27T03:45:28;4.70;1.00
21255;DHT22;10785;50.674;17.954;2022-11-27T03:48:08;4.70;1.00
21255;DHT22;10785;50.674;17.954;2022-11-27T03:50:50;4.60;1.00
21255;DHT22;10785;50.674;17.954;2022-11-27T03:53:25;4.70;1.00
21255;DHT22;10785;50.674;17.954;2022-11-27T03:56:00;4.60;1.00
21255;DHT22;10785;50.674;17.954;2022-11-27T03:58:40;4.70;1.00
21255;DHT22;10785;50.674;17.954;2022-11-27T04:01:14;4.60;1.00
21255;DHT22;10785;50.674;17.954;2022-11-27T04:03:44;4.60;1.00
21255;DHT22;10785;50.674;17.954;2022-11-27T04:06:13;4.60;1.00
21255;DHT22;10785;50.674;17.954;2022-11-27T04:08:42;4.60;1.00
21255;DHT22;10785;50.674;17.954;2022-11-27T04:11:11;4.60;1.00
21255;DHT22;10785;50.674;17.954;2022-11-27T04:13:40;4.60;1.00
21255;DHT22;10785;50.674;17.954;2022-11-27T04:16:09;4.60;1.00
21255;DHT22;10785;50.674;17.954;2022-11-27T04:18:39;4.60;1.00
21255;DHT22;10785;50.674;17.954;2022-11-27T04:21:07;4.60;1.00
21255;DHT22;10785;50.674;17.954;2022-11-27T04:23:36;4.60;1.00
21255;DHT22;10785;50.674;17.954;2022-11-27T04:26:05;4.60;1.00
21255;DHT22;10785;50.674;17.954;2022-11-27T04:28:33;4.60;1.00
21255;DHT22;10785;50.674;17.954;2022-11-27T04:31:02;4.50;1.00
21255;DHT22;10785;50.674;17.954;2022-11-27T04:33:31;4.50;1.00
21255;DHT22;10785;50.674;17.954;2022-11-27T04:36:00;4.50;1.00
21255;DHT22;10785;50.674;17.954;2022-11-27T04:38:29;4.40;1.00
21255;DHT22;10785;50.674;17.954;2022-11-27T04:40:57;4.50;1.00
21255;DHT22;10785;50.674;17.954;2022-11-27T04:43:27;4.40;1.00
21255;DHT22;10785;50.674;17.954;2022-11-27T04:45:55;4.60;1.00
21255;DHT22;10785;50.674;17.954;2022-11-27T04:48:24;4.40;1.00
21255;DHT22;10785;50.674;17.954;2022-11-27T04:50:53;4.40;1.00
21255;DHT22;10785;50.674;17.954;2022-11-27T04:53:23;4.30;1.00
21255;DHT22;10785;50.674;17.954;2022-11-27T04:55:51;4.30;1.00
21255;DHT22;10785;50.674;17.954;2022-11-27T04:58:20;4.40;1.00
21255;DHT22;10785;50.674;17.954;2022-11-27T05:00:48;4.40;1.00
21255;DHT22;10785;50.674;17.954;2022-11-27T05:03:17;4.30;1.00
21255;DHT22;10785;50.674;17.954;2022-11-27T05:05:53;4.40;1.00
21255;DHT22;10785;50.674;17.954;2022-11-27T05:08:24;4.40;3.30
21255;DHT22;10785;50.674;17.954;2022-11-27T05:11:00;4.40;1.00
21255;DHT22;10785;50.674;17.954;2022-11-27T05:13:29;4.40;16.40
21255;DHT22;10785;50.674;17.954;2022-11-27T05:15:59;4.40;17.80
21255;DHT22;10785;50.674;17.954;2022-11-27T05:18:27;4.40;17.40
21255;DHT22;10785;50.674;17.954;2022-11-27T05:20:57;4.50;24.20
21255;DHT22;10785;50.674;17.954;2022-11-27T05:23:27;4.50;26.50
21255;DHT22;10785;50.674;17.954;2022-11-27T05:25:56;4.50;15.90
21255;DHT22;10785;50.674;17.954;2022-11-27T05:28:25;4.40;1.00
21255;DHT22;10785;50.674;17.954;2022-11-27T05:30:54;4.40;1.00
21255;DHT22;10785;50.674;17.954;2022-11-27T05:33:22;4.40;1.00
21255;DHT22;10785;50.674;17.954;2022-11-27T05:35:51;4.50;36.10
21255;DHT22;10785;50.674;17.954;2022-11-27T05:38:19;4.50;33.70
21255;DHT22;10785;50.674;17.954;2022-11-27T05:40:49;4.50;1.00
21255;DHT22;10785;50.674;17.954;2022-11-27T05:43:18;4.50;16.90
21255;DHT22;10785;50.674;17.954;2022-11-27T05:45:46;4.50;22.80
21255;DHT22;10785;50.674;17.954;2022-11-27T05:48:15;4.50;7.00
21255;DHT22;10785;50.674;17.954;2022-11-27T05:50:43;4.50;37.30
21255;DHT22;10785;50.674;17.954;2022-11-27T05:53:12;4.50;39.60
21255;DHT22;10785;50.674;17.954;2022-11-27T05:55:41;4.60;31.70
21255;DHT22;10785;50.674;17.954;2022-11-27T05:58:11;4.50;29.80
21255;DHT22;10785;50.674;17.954;2022-11-27T06:00:39;4.50;55.00
21255;DHT22;10785;50.674;17.954;2022-11-27T06:03:08;4.50;58.00
21255;DHT22;10785;50.674;17.954;2022-11-27T06:05:37;4.60;59.80
21255;DHT22;10785;50.674;17.954;2022-11-27T06:08:06;4.50;78.80
21255;DHT22;10785;50.674;17.954;2022-11-27T06:10:37;4.60;71.90
21255;DHT22;10785;50.674;17.954;2022-11-27T06:13:06;4.60;80.50
21255;DHT22;10785;50.674;17.954;2022-11-27T06:15:36;4.60;49.40
21255;DHT22;10785;50.674;17.954;2022-11-27T06:18:06;4.60;30.10
21255;DHT22;10785;50.674;17.954;2022-11-27T06:20:34;4.60;30.80
21255;DHT22;10785;50.674;17.954;2022-11-27T06:23:09;4.60;52.60
21255;DHT22;10785;50.674;17.954;2022-11-27T06:25:38;4.70;1.90
21255;DHT22;10785;50.674;17.954;2022-11-27T06:28:06;4.60;1.00
21255;DHT22;10785;50.674;17.954;2022-11-27T06:30:37;4.60;1.00
21255;DHT22;10785;50.674;17.954;2022-11-27T06:33:06;4.70;1.00
21255;DHT22;10785;50.674;17.954;2022-11-27T06:35:34;4.70;1.00
21255;DHT22;10785;50.674;17.954;2022-11-27T06:38:03;4.70;1.00
21255;DHT22;10785;50.674;17.954;2022-11-27T06:40:32;4.70;38.30
21255;DHT22;10785;50.674;17.954;2022-11-27T06:43:00;4.70;99.90
21255;DHT22;10785;50.674;17.954;2022-11-27T06:45:29;4.60;77.80
21255;DHT22;10785;50.674;17.954;2022-11-27T06:47:59;4.70;99.90
21255;DHT22;10785;50.674;17.954;2022-11-27T06:50:28;4.70;99.90
21255;DHT22;10785;50.674;17.954;2022-11-27T06:52:56;4.80;99.90
21255;DHT22;10785;50.674;17.954;2022-11-27T06:55:25;4.80;34.90
21255;DHT22;10785;50.674;17.954;2022-11-27T06:57:54;4.80;1.00
21255;DHT22;10785;50.674;17.954;2022-11-27T07:00:22;4.80;1.00
21255;DHT22;10785;50.674;17.954;2022-11-27T07:02:53;4.80;1.00
21255;DHT22;10785;50.674;17.954;2022-11-27T07:05:23;4.80;1.00
21255;DHT22;10785;50.674;17.954;2022-11-27T07:07:53;4.90;1.00
21255;DHT22;10785;50.674;17.954;2022-11-27T07:10:22;4.80;1.00
21255;DHT22;10785;50.674;17.954;2022-11-27T07:12:50;4.90;1.00
21255;DHT22;10785;50.674;17.954;2022-11-27T07:15:19;4.80;1.00
21255;DHT22;10785;50.674;17.954;2022-11-27T07:17:48;4.90;1.00
21255;DHT22;10785;50.674;17.954;2022-11-27T07:20:16;4.90;1.00
21255;DHT22;10785;50.674;17.954;2022-11-27T07:22:46;4.90;1.00
21255;DHT22;10785;50.674;17.954;2022-11-27T07:25:15;4.90;1.00
21255;DHT22;10785;50.674;17.954;2022-11-27T07:27:44;5.00;1.00
21255;DHT22;10785;50.674;17.954;2022-11-27T07:30:13;5.00;1.00
21255;DHT22;10785;50.674;17.954;2022-11-27T07:32:44;5.10;1.00
21255;DHT22;10785;50.674;17.954;2022-11-27T07:35:13;5.10;1.00
21255;DHT22;10785;50.674;17.954;2022-11-27T07:37:41;5.10;1.00
21255;DHT22;10785;50.674;17.954;2022-11-27T07:40:12;5.10;1.00
21255;DHT22;10785;50.674;17.954;2022-11-27T07:42:41;5.10;1.00
21255;DHT22;10785;50.674;17.954;2022-11-27T07:45:10;5.10;1.00
21255;DHT22;10785;50.674;17.954;2022-11-27T07:47:39;5.20;6.80
21255;DHT22;10785;50.674;17.954;2022-11-27T07:50:09;5.20;1.00
21255;DHT22;10785;50.674;17.954;2022-11-27T07:52:37;5.20;1.00
21255;DHT22;10785;50.674;17.954;2022-11-27T07:55:08;5.10;1.00
21255;DHT22;10785;50.674;17.954;2022-11-27T07:57:41;5.20;1.00
21255;DHT22;10785;50.674;17.954;2022-11-27T08:00:10;5.20;1.00
21255;DHT22;10785;50.674;17.954;2022-11-27T08:02:39;5.30;1.00
21255;DHT22;10785;50.674;17.954;2022-11-27T08:05:08;5.30;1.00
21255;DHT22;10785;50.674;17.954;2022-11-27T08:07:39;5.40;8.50
21255;DHT22;10785;50.674;17.954;2022-11-27T08:10:08;5.40;4.50
21255;DHT22;10785;50.674;17.954;2022-11-27T08:12:37;5.40;1.00
21255;DHT22;10785;50.674;17.954;2022-11-27T08:15:08;5.40;1.00
21255;DHT22;10785;50.674;17.954;2022-11-27T08:17:38;5.50;1.00
21255;DHT22;10785;50.674;17.954;2022-11-27T08:20:07;5.50;1.00
21255;DHT22;10785;50.674;17.954;2022-11-27T08:22:36;5.50;1.00
21255;DHT22;10785;50.674;17.954;2022-11-27T08:25:05;5.40;1.00
21255;DHT22;10785;50.674;17.954;2022-11-27T08:27:34;5.50;1.00
21255;DHT22;10785;50.674;17.954;2022-11-27T08:30:03;5.50;1.00
21255;DHT22;10785;50.674;17.954;2022-11-27T08:32:33;5.50;1.00
21255;DHT22;10785;50.674;17.954;2022-11-27T08:35:02;5.50;1.00
21255;DHT22;10785;50.674;17.954;2022-11-27T08:37:32;5.50;1.00
21255;DHT22;10785;50.674;17.954;2022-11-27T08:40:00;5.60;1.00
21255;DHT22;10785;50.674;17.954;2022-11-27T08:42:30;5.60;1.00
21255;DHT22;10785;50.674;17.954;2022-11-27T08:44:59;5.60;1.00
21255;DHT22;10785;50.674;17.954;2022-11-27T08:47:29;5.70;1.00
21255;DHT22;10785;50.674;17.954;2022-11-27T08:50:00;5.70;1.00
21255;DHT22;10785;50.674;17.954;2022-11-27T08:52:31;5.70;1.00
21255;DHT22;10785;50.674;17.954;2022-11-27T08:54:59;5.70;1.00
21255;DHT22;10785;50.674;17.954;2022-11-27T08:57:29;5.70;1.00
21255;DHT22;10785;50.674;17.954;2022-11-27T08:59:57;5.80;1.00
21255;DHT22;10785;50.674;17.954;2022-11-27T09:02:26;5.80;1.00
21255;DHT22;10785;50.674;17.954;2022-11-27T09:04:54;5.80;1.00
21255;DHT22;10785;50.674;17.954;2022-11-27T09:07:27;5.80;1.00
21255;DHT22;10785;50.674;17.954;2022-11-27T09:09:55;5.80;1.00
21255;DHT22;10785;50.674;17.954;2022-11-27T09:12:24;5.90;1.00
21255;DHT22;10785;50.674;17.954;2022-11-27T09:14:53;5.90;1.00
21255;DHT22;10785;50.674;17.954;2022-11-27T09:17:22;5.90;1.00
21255;DHT22;10785;50.674;17.954;2022-11-27T09:19:50;6.00;1.00
21255;DHT22;10785;50.674;17.954;2022-11-27T09:22:19;6.00;1.00
21255;DHT22;10785;50.674;17.954;2022-11-27T09:24:50;6.00;1.00
21255;DHT22;10785;50.674;17.954;2022-11-27T09:27:18;6.00;1.00
21255;DHT22;10785;50.674;17.954;2022-11-27T09:29:47;6.10;1.00
21255;DHT22;10785;50.674;17.954;2022-11-27T09:32:15;6.20;1.00
21255;DHT22;10785;50.674;17.954;2022-11-27T09:34:45;6.20;1.00
21255;DHT22;10785;50.674;17.954;2022-11-27T09:37:14;6.20;1.00
21255;DHT22;10785;50.674;17.954;2022-11-27T09:39:42;6.30;1.00
21255;DHT22;10785;50.674;17.954;2022-11-27T09:42:20;6.40;1.00
21255;DHT22;10785;50.674;17.954;2022-11-27T09:44:55;6.40;1.00
21255;DHT22;10785;50.674;17.954;2022-11-27T09:47:31;6.50;1.00
21255;DHT22;10785;50.674;17.954;2022-11-27T09:50:12;6.50;1.00
21255;DHT22;10785;50.674;17.954;2022-11-27T09:52:46;6.50;1.00
21255;DHT22;10785;50.674;17.954;2022-11-27T09:55:20;6.60;1.00
21255;DHT22;10785;50.674;17.954;2022-11-27T09:57:56;6.70;1.00
21255;DHT22;10785;50.674;17.954;2022-11-27T10:00:27;6.60;1.00
21255;DHT22;10785;50.674;17.954;2022-11-27T10:02:55;6.60;1.00
21255;DHT22;10785;50.674;17.954;2022-11-27T10:05:27;6.60;1.00
21255;DHT22;10785;50.674;17.954;2022-11-27T10:08:19;6.70;1.00
21255;DHT22;10785;50.674;17.954;2022-11-27T10:10:58;6.60;1.00
21255;DHT22;10785;50.674;17.954;2022-11-27T10:13:42;6.50;99.90
21255;DHT22;10785;50.674;17.954;2022-11-27T10:16:18;6.60;99.90
21255;DHT22;10785;50.674;17.954;2022-11-27T10:18:51;6.50;99.90
21255;DHT22;10785;50.674;17.954;2022-11-27T10:21:28;6.50;99.90
21255;DHT22;10785;50.674;17.954;2022-11-27T10:24:06;6.60;1.00
21255;DHT22;10785;50.674;17.954;2022-11-27T10:26:40;6.50;1.00
21255;DHT22;10785;50.674;17.954;2022-11-27T10:29:24;6.50;1.00
21255;DHT22;10785;50.674;17.954;2022-11-27T10:31:57;6.40;1.00
21255;DHT22;10785;50.674;17.954;2022-11-27T10:34:33;6.40;1.00
21255;DHT22;10785;50.674;17.954;2022-11-27T10:37:07;6.50;99.90
21255;DHT22;10785;50.674;17.954;2022-11-27T10:39:43;6.50;1.00
21255;DHT22;10785;50.674;17.954;2022-11-27T10:42:15;6.60;99.90
21255;DHT22;10785;50.674;17.954;2022-11-27T10:44:50;6.50;99.90
21255;DHT22;10785;50.674;17.954;2022-11-27T10:47:24;6.50;53.90
21255;DHT22;10785;50.674;17.954;2022-11-27T10:49:59;6.60;99.90
21255;DHT22;10785;50.674;17.954;2022-11-27T10:52:29;6.60;99.90
21255;DHT22;10785;50.674;17.954;2022-11-27T10:55:02;6.60;99.90
21255;DHT22;10785;50.674;17.954;2022-11-27T10:57:45;6.70;99.90
21255;DHT22;10785;50.674;17.954;2022-11-27T11:00:20;6.60;1.00
21255;DHT22;10785;50.674;17.954;2022-11-27T11:02:58;6.60;99.90
21255;DHT22;10785;50.674;17.954;2022-11-27T11:05:28;6.60;1.00
21255;DHT22;10785;50.674;17.954;2022-11-27T11:08:18;6.60;99.90
21255;DHT22;10785;50.674;17.954;2022-11-27T11:10:50;6.60;1.00
21255;DHT22;10785;50.674;17.954;2022-11-27T11:13:20;6.60;99.90
21255;DHT22;10785;50.674;17.954;2022-11-27T11:15:53;6.60;1.00
21255;DHT22;10785;50.674;17.954;2022-11-27T11:18:24;6.60;1.00
21255;DHT22;10785;50.674;17.954;2022-11-27T11:20:55;6.50;1.00
21255;DHT22;10785;50.674;17.954;2022-11-27T11:23:30;6.50;86.50
21255;DHT22;10785;50.674;17.954;2022-11-27T11:26:03;6.50;45.10
21255;DHT22;10785;50.674;17.954;2022-11-27T11:28:34;6.60;1.00
21255;DHT22;10785;50.674;17.954;2022-11-27T11:31:11;6.70;99.90
21255;DHT22;10785;50.674;17.954;2022-11-27T11:33:48;6.80;99.90
21255;DHT22;10785;50.674;17.954;2022-11-27T11:36:18;6.90;99.90
21255;DHT22;10785;50.674;17.954;2022-11-27T11:38:48;6.90;1.00
21255;DHT22;10785;50.674;17.954;2022-11-27T11:41:18;7.00;1.00
21255;DHT22;10785;50.674;17.954;2022-11-27T11:43:58;7.10;1.00
21255;DHT22;10785;50.674;17.954;2022-11-27T11:46:30;7.20;99.90
21255;DHT22;10785;50.674;17.954;2022-11-27T11:49:04;7.20;1.00
21255;DHT22;10785;50.674;17.954;2022-11-27T11:51:56;7.20;99.90
21255;DHT22;10785;50.674;17.954;2022-11-27T11:54:37;7.20;1.00
21255;DHT22;10785;50.674;17.954;2022-11-27T11:57:26;7.20;1.00
21255;DHT22;10785;50.674;17.954;2022-11-27T12:00:01;7.20;1.00
21255;DHT22;10785;50.674;17.954;2022-11-27T12:05:33;7.30;1.00
21255;DHT22;10785;50.674;17.954;2022-11-27T12:08:18;7.40;1.00
21255;DHT22;10785;50.674;17.954;2022-11-27T12:10:57;7.50;1.00
21255;DHT22;10785;50.674;17.954;2022-11-27T12:13:45;7.50;1.00
21255;DHT22;10785;50.674;17.954;2022-11-27T12:16:23;7.40;93.00
21255;DHT22;10785;50.674;17.954;2022-11-27T12:19:13;7.50;99.90
21255;DHT22;10785;50.674;17.954;2022-11-27T12:21:54;7.60;31.10
21255;DHT22;10785;50.674;17.954;2022-11-27T12:24:34;7.70;24.40
21255;DHT22;10785;50.674;17.954;2022-11-27T12:27:14;7.70;1.00
21255;DHT22;10785;50.674;17.954;2022-11-27T12:29:58;7.70;1.00
21255;DHT22;10785;50.674;17.954;2022-11-27T12:33:00;7.50;99.90
21255;DHT22;10785;50.674;17.954;2022-11-27T12:35:34;7.50;1.00
21255;DHT22;10785;50.674;17.954;2022-11-27T12:38:27;7.50;99.90
21255;DHT22;10785;50.674;17.954;2022-11-27T12:43:57;7.70;99.90
21255;DHT22;10785;50.674;17.954;2022-11-27T12:46:31;7.70;99.90
21255;DHT22;10785;50.674;17.954;2022-11-27T12:49:09;7.80;99.90
21255;DHT22;10785;50.674;17.954;2022-11-27T12:51:44;7.80;99.90
21255;DHT22;10785;50.674;17.954;2022-11-27T12:54:18;7.80;1.00
21255;DHT22;10785;50.674;17.954;2022-11-27T12:56:51;7.80;99.90
21255;DHT22;10785;50.674;17.954;2022-11-27T12:59:24;7.80;1.00
21255;DHT22;10785;50.674;17.954;2022-11-27T13:02:00;7.90;1.00
21255;DHT22;10785;50.674;17.954;2022-11-27T13:04:36;7.90;1.00
21255;DHT22;10785;50.674;17.954;2022-11-27T13:07:11;8.00;1.00
21255;DHT22;10785;50.674;17.954;2022-11-27T13:09:46;8.00;1.00
21255;DHT22;10785;50.674;17.954;2022-11-27T13:12:21;7.90;1.00
21255;DHT22;10785;50.674;17.954;2022-11-27T13:14:56;8.00;93.60
21255;DHT22;10785;50.674;17.954;2022-11-27T13:17:31;7.90;1.00
21255;DHT22;10785;50.674;17.954;2022-11-27T13:20:02;8.00;1.00
21255;DHT22;10785;50.674;17.954;2022-11-27T13:22:35;7.90;99.90
21255;DHT22;10785;50.674;17.954;2022-11-27T13:25:09;7.80;99.90
21255;DHT22;10785;50.674;17.954;2022-11-27T13:27:43;7.80;99.90
21255;DHT22;10785;50.674;17.954;2022-11-27T13:30:20;7.90;41.10
21255;DHT22;10785;50.674;17.954;2022-11-27T13:32:52;7.90;13.80
21255;DHT22;10785;50.674;17.954;2022-11-27T13:35:25;7.90;12.10
21255;DHT22;10785;50.674;17.954;2022-11-27T13:38:01;7.80;1.00
21255;DHT22;10785;50.674;17.954;2022-11-27T13:40:36;7.70;1.00
21255;DHT22;10785;50.674;17.954;2022-11-27T13:43:19;7.60;60.30
21255;DHT22;10785;50.674;17.954;2022-11-27T13:45:50;7.50;1.00
21255;DHT22;10785;50.674;17.954;2022-11-27T13:48:29;7.50;99.90
21255;DHT22;10785;50.674;17.954;2022-11-27T13:50:59;7.40;99.90
21255;DHT22;10785;50.674;17.954;2022-11-27T13:53:35;7.30;99.90
21255;DHT22;10785;50.674;17.954;2022-11-27T13:56:05;7.40;99.90
21255;DHT22;10785;50.674;17.954;2022-11-27T13:58:36;7.20;1.00
21255;DHT22;10785;50.674;17.954;2022-11-27T14:01:14;7.10;50.50
21255;DHT22;10785;50.674;17.954;2022-11-27T14:03:43;7.10;1.00
21255;DHT22;10785;50.674;17.954;2022-11-27T14:06:18;7.00;99.90
21255;DHT22;10785;50.674;17.954;2022-11-27T14:08:53;7.00;99.90
21255;DHT22;10785;50.674;17.954;2022-11-27T14:11:31;7.00;1.00
21255;DHT22;10785;50.674;17.954;2022-11-27T14:14:12;6.90;1.00
21255;DHT22;10785;50.674;17.954;2022-11-27T14:16:52;6.80;1.00
21255;DHT22;10785;50.674;17.954;2022-11-27T14:19:26;6.80;1.00
21255;DHT22;10785;50.674;17.954;2022-11-27T14:22:01;6.70;1.00
21255;DHT22;10785;50.674;17.954;2022-11-27T14:24:42;6.70;1.00
21255;DHT22;10785;50.674;17.954;2022-11-27T14:27:15;6.60;1.00
21255;DHT22;10785;50.674;17.954;2022-11-27T14:29:44;6.60;1.00
21255;DHT22;10785;50.674;17.954;2022-11-27T14:32:15;6.60;1.00
21255;DHT22;10785;50.674;17.954;2022-11-27T14:34:46;6.60;1.00
21255;DHT22;10785;50.674;17.954;2022-11-27T14:37:20;6.50;1.00
21255;DHT22;10785;50.674;17.954;2022-11-27T14:39:52;6.50;1.00
21255;DHT22;10785;50.674;17.954;2022-11-27T14:42:24;6.50;1.00
21255;DHT22;10785;50.674;17.954;2022-11-27T14:45:00;6.40;1.00
21255;DHT22;10785;50.674;17.954;2022-11-27T14:47:29;6.30;1.00
21255;DHT22;10785;50.674;17.954;2022-11-27T14:49:59;6.30;1.00
21255;DHT22;10785;50.674;17.954;2022-11-27T14:52:30;6.20;1.00
21255;DHT22;10785;50.674;17.954;2022-11-27T14:55:00;6.20;1.00
21255;DHT22;10785;50.674;17.954;2022-11-27T14:57:30;6.20;1.00
21255;DHT22;10785;50.674;17.954;2022-11-27T15:00:01;6.20;1.00
21255;DHT22;10785;50.674;17.954;2022-11-27T15:02:32;6.10;1.00
21255;DHT22;10785;50.674;17.954;2022-11-27T15:05:03;6.10;1.00
21255;DHT22;10785;50.674;17.954;2022-11-27T15:07:34;6.10;1.00
21255;DHT22;10785;50.674;17.954;2022-11-27T15:10:32;6.10;1.00
21255;DHT22;10785;50.674;17.954;2022-11-27T15:13:04;6.00;1.00
21255;DHT22;10785;50.674;17.954;2022-11-27T15:15:38;6.00;27.90
21255;DHT22;10785;50.674;17.954;2022-11-27T15:18:19;6.00;1.00
21255;DHT22;10785;50.674;17.954;2022-11-27T15:20:50;6.00;1.00
21255;DHT22;10785;50.674;17.954;2022-11-27T15:23:20;6.00;1.00
21255;DHT22;10785;50.674;17.954;2022-11-27T15:26:05;6.00;1.00
21255;DHT22;10785;50.674;17.954;2022-11-27T15:28:49;6.00;1.00
21255;DHT22;10785;50.674;17.954;2022-11-27T15:31:27;5.90;1.00
21255;DHT22;10785;50.674;17.954;2022-11-27T15:33:58;5.90;99.90
21255;DHT22;10785;50.674;17.954;2022-11-27T15:36:46;5.90;99.90
21255;DHT22;10785;50.674;17.954;2022-11-27T15:39:19;5.90;99.90
21255;DHT22;10785;50.674;17.954;2022-11-27T15:41:51;5.90;12.10
21255;DHT22;10785;50.674;17.954;2022-11-27T15:44:21;5.90;1.00
21255;DHT22;10785;50.674;17.954;2022-11-27T15:46:51;5.90;1.00
21255;DHT22;10785;50.674;17.954;2022-11-27T15:49:21;5.80;1.00
21255;DHT22;10785;50.674;17.954;2022-11-27T15:51:50;5.80;99.90
21255;DHT22;10785;50.674;17.954;2022-11-27T15:54:20;5.80;17.10
21255;DHT22;10785;50.674;17.954;2022-11-27T15:56:50;5.80;1.00
21255;DHT22;10785;50.674;17.954;2022-11-27T15:59:19;5.70;64.10
21255;DHT22;10785;50.674;17.954;2022-11-27T16:01:50;5.80;99.90
21255;DHT22;10785;50.674;17.954;2022-11-27T16:04:19;5.70;99.90
21255;DHT22;10785;50.674;17.954;2022-11-27T16:06:48;5.70;99.90
21255;DHT22;10785;50.674;17.954;2022-11-27T16:09:17;5.60;99.90
21255;DHT22;10785;50.674;17.954;2022-11-27T16:11:46;5.60;99.90
21255;DHT22;10785;50.674;17.954;2022-11-27T16:14:17;5.60;1.00
21255;DHT22;10785;50.674;17.954;2022-11-27T16:16:45;5.60;1.00
21255;DHT22;10785;50.674;17.954;2022-11-27T16:19:14;5.60;99.90
21255;DHT22;10785;50.674;17.954;2022-11-27T16:21:43;5.60;99.90
21255;DHT22;10785;50.674;17.954;2022-11-27T16:24:13;5.60;99.90